createdAt,value
2022-08-17T00:01:24.351Z,69.93
2022-08-17T00:04:11.667Z,70.43
2022-08-17T00:06:57.332Z,71.74
2022-08-17T00:09:40.413Z,72.39
2022-08-17T00:12:41.202Z,72.44
2022-08-17T00:15:26.585Z,72.33
2022-08-17T00:19:05.705Z,72.24
2022-08-17T00:21:13.751Z,72.87
2022-08-17T00:23:58.319Z,73.78
2022-08-17T00:26:44.960Z,73.94
2022-08-17T00:29:28.420Z,74.07
2022-08-17T00:33:12.285Z,73.47
2022-08-17T00:35:17.688Z,73.56
2022-08-17T00:38:00.776Z,74.56
2022-08-17T00:40:49.356Z,74.64
2022-08-17T00:43:37.567Z,74.88
2022-08-17T00:46:24.664Z,74.83
2022-08-17T00:49:09.709Z,73.86
2022-08-17T00:51:57.157Z,74.87
2022-08-17T00:54:43.376Z,74.95
2022-08-17T00:57:32.095Z,74.86
2022-08-17T01:00:19.662Z,73.98
2022-08-17T01:03:07.664Z,73.16
2022-08-17T01:05:52.415Z,73.50
2022-08-17T01:08:37.028Z,74.19
2022-08-17T01:11:21.019Z,74.25
2022-08-17T01:14:05.730Z,75.85
2022-08-17T01:16:50.618Z,73.94
2022-08-17T01:19:37.734Z,74.78
2022-08-17T01:22:24.111Z,73.04
2022-08-17T01:25:10.449Z,73.34
2022-08-17T01:27:53.616Z,73.35
2022-08-17T01:30:57.027Z,72.89
2022-08-17T01:33:40.154Z,72.67
2022-08-17T01:36:23.274Z,73.11
2022-08-17T01:39:10.898Z,72.65
2022-08-17T01:41:59.946Z,72.10
2022-08-17T01:44:43.202Z,71.82
2022-08-17T01:47:26.373Z,72.14
2022-08-17T01:50:12.242Z,71.76
2022-08-17T01:53:00.838Z,72.26
2022-08-17T01:55:51.724Z,72.49
2022-08-17T01:58:36.896Z,73.15
2022-08-17T02:01:23.085Z,73.90
2022-08-17T02:04:08.450Z,74.39
2022-08-17T02:06:54.472Z,74.09
2022-08-17T02:09:37.858Z,74.25
2022-08-17T02:12:39.117Z,74.74
2022-08-17T02:15:23.640Z,75.35
2022-08-17T02:18:08.668Z,75.62
2022-08-17T02:20:51.776Z,76.07
2022-08-17T02:23:37.802Z,76.58
2022-08-17T02:26:25.720Z,76.86
2022-08-17T02:29:12.091Z,77.17
2022-08-17T02:31:55.206Z,77.87
2022-08-17T02:34:38.344Z,78.30
2022-08-17T02:37:21.455Z,78.61
2022-08-17T02:40:06.771Z,78.92
2022-08-17T02:42:50.252Z,79.73
2022-08-17T02:45:35.219Z,79.72
2022-08-17T02:48:31.201Z,80.36
2022-08-17T02:51:15.158Z,81.04
2022-08-17T02:54:39.446Z,81.05
2022-08-17T02:57:03.043Z,81.52
2022-08-17T02:59:49.062Z,80.87
2022-08-17T03:02:39.251Z,80.94
2022-08-17T03:05:24.679Z,81.44
2022-08-17T03:08:11.745Z,81.13
2022-08-17T03:10:56.572Z,81.10
2022-08-17T03:13:39.711Z,81.37
2022-08-17T03:16:22.808Z,80.10
2022-08-17T03:19:07.280Z,79.99
2022-08-17T03:21:54.931Z,80.51
2022-08-17T03:24:38.579Z,80.58
2022-08-17T03:27:23.253Z,80.11
2022-08-17T03:30:09.027Z,79.82
2022-08-17T03:32:55.262Z,79.22
2022-08-17T03:35:41.455Z,79.44
2022-08-17T03:38:24.877Z,79.29
2022-08-17T03:41:08.821Z,79.14
2022-08-17T03:43:51.894Z,79.55
2022-08-17T03:46:52.252Z,79.78
2022-08-17T03:49:52.448Z,79.81
2022-08-17T03:52:54.586Z,79.63
2022-08-17T03:55:55.815Z,79.82
2022-08-17T03:58:38.867Z,79.09
2022-08-17T04:01:23.398Z,79.41
2022-08-17T04:04:07.347Z,79.13
2022-08-17T04:06:50.446Z,79.70
2022-08-17T04:09:35.048Z,79.39
2022-08-17T04:12:20.298Z,80.07
2022-08-17T04:15:03.392Z,80.64
2022-08-17T04:17:46.464Z,81.06
2022-08-17T04:20:29.551Z,80.28
2022-08-17T04:23:15.553Z,80.83
2022-08-17T04:26:00.092Z,78.68
2022-08-17T04:28:43.580Z,78.55
2022-08-17T04:31:27.574Z,80.03
2022-08-17T04:34:10.709Z,80.62
2022-08-17T04:36:53.839Z,81.21
2022-08-17T04:39:36.929Z,80.63
2022-08-17T04:42:20.370Z,80.26
2022-08-17T04:45:03.831Z,80.14
2022-08-17T04:47:46.881Z,80.30
2022-08-17T04:50:30.028Z,80.45
2022-08-17T04:53:13.291Z,80.45
2022-08-17T04:55:58.329Z,80.30
2022-08-17T04:58:43.080Z,80.44
2022-08-17T05:01:29.037Z,80.16
2022-08-17T05:04:21.422Z,79.87
2022-08-17T05:07:23.075Z,80.65
2022-08-17T05:10:08.118Z,79.91
2022-08-17T05:13:00.410Z,79.37
2022-08-17T05:15:47.768Z,78.61
2022-08-17T05:18:31.993Z,78.94
2022-08-17T05:21:16.414Z,78.35
2022-08-17T05:23:59.578Z,77.77
2022-08-17T05:26:42.671Z,75.87
2022-08-17T05:29:35.271Z,76.13
2022-08-17T05:32:39.111Z,75.05
2022-08-17T05:35:24.288Z,75.50
2022-08-17T05:38:08.095Z,75.84
2022-08-17T05:40:51.808Z,75.43
2022-08-17T05:43:36.574Z,74.77
2022-08-17T05:46:23.491Z,73.06
2022-08-17T05:49:09.089Z,72.76
2022-08-17T05:52:08.986Z,71.99
2022-08-17T05:55:08.509Z,70.34
2022-08-17T05:58:07.809Z,68.66
2022-08-17T06:01:01.358Z,67.32
2022-08-17T06:03:50.622Z,65.63
2022-08-17T06:06:41.772Z,64.28
2022-08-17T06:09:36.906Z,63.87
2022-08-17T06:12:44.266Z,61.39
2022-08-17T06:15:34.071Z,60.73
2022-08-17T06:18:19.798Z,59.68
2022-08-17T06:21:08.354Z,59.30
2022-08-17T06:23:58.150Z,57.51
2022-08-17T06:26:44.308Z,56.98
2022-08-17T06:29:38.256Z,56.99
2022-08-17T06:32:21.557Z,56.71
2022-08-17T06:35:05.573Z,56.48
2022-08-17T06:38:00.739Z,54.77
2022-08-17T06:41:03.788Z,53.59
2022-08-17T06:44:04.712Z,53.94
2022-08-17T06:46:52.287Z,53.14
2022-08-17T06:49:42.794Z,52.16
2022-08-17T06:52:46.906Z,51.95
2022-08-17T06:55:38.058Z,50.15
2022-08-17T06:58:29.666Z,50.52
2022-08-17T07:01:17.045Z,49.09
2022-08-17T07:04:11.739Z,47.28
2022-08-17T07:07:01.703Z,46.95
2022-08-17T07:09:46.057Z,46.33
2022-08-17T07:12:37.518Z,46.26
2022-08-17T07:15:28.134Z,44.40
2022-08-17T07:18:11.622Z,43.52
2022-08-17T07:21:04.633Z,40.97
2022-08-17T07:24:02.154Z,38.17
2022-08-17T07:26:49.686Z,35.18
2022-08-17T07:29:39.912Z,35.76
2022-08-17T07:32:31.527Z,34.81
2022-08-17T07:35:21.183Z,34.29
2022-08-17T07:38:25.109Z,31.92
2022-08-17T07:41:12.078Z,29.77
2022-08-17T07:43:55.265Z,29.01
2022-08-17T07:47:06.788Z,28.95
2022-08-17T07:49:51.310Z,28.36
2022-08-17T07:52:51.409Z,27.80
2022-08-17T07:55:40.527Z,26.55
2022-08-17T07:58:26.598Z,26.42
2022-08-17T08:01:11.718Z,25.39
2022-08-17T08:03:58.164Z,25.00
2022-08-17T08:06:49.845Z,25.08
2022-08-17T08:09:38.490Z,23.92
2022-08-17T08:12:34.475Z,24.53
2022-08-17T08:15:19.804Z,24.86
2022-08-17T08:18:06.030Z,24.08
2022-08-17T08:20:54.062Z,23.33
2022-08-17T08:23:47.633Z,22.68
2022-08-17T08:26:38.714Z,22.14
2022-08-17T08:29:33.028Z,21.27
2022-08-17T08:32:25.180Z,22.53
2022-08-17T08:35:11.510Z,21.79
2022-08-17T08:38:03.655Z,22.32
2022-08-17T08:41:02.607Z,22.25
2022-08-17T08:43:56.992Z,21.73
2022-08-17T08:46:50.146Z,22.00
2022-08-17T08:50:37.209Z,21.91
2022-08-17T08:53:31.997Z,21.69
2022-08-17T08:56:25.932Z,21.57
2022-08-17T08:59:21.994Z,20.19
2022-08-17T09:02:22.083Z,20.91
2022-08-17T09:05:22.603Z,19.68
2022-08-17T09:08:17.627Z,20.45
2022-08-17T09:11:06.140Z,20.18
2022-08-17T09:13:57.886Z,19.75
2022-08-17T09:16:45.849Z,19.59
2022-08-17T09:19:33.301Z,20.14
2022-08-17T09:22:31.560Z,19.21
2022-08-17T09:25:17.590Z,20.61
2022-08-17T09:28:05.294Z,19.65
2022-08-17T09:30:53.615Z,20.25
2022-08-17T09:33:41.731Z,20.32
2022-08-17T09:36:31.178Z,19.51
2022-08-17T09:39:18.678Z,20.17
2022-08-17T09:42:08.079Z,19.84
2022-08-17T09:45:03.156Z,19.21
2022-08-17T09:47:55.120Z,19.70
2022-08-17T09:51:04.074Z,18.72
2022-08-17T09:53:49.828Z,19.43
2022-08-17T09:56:46.244Z,19.65
2022-08-17T09:59:47.562Z,19.23
2022-08-17T10:03:03.138Z,17.47
2022-08-17T10:05:56.500Z,18.46
2022-08-17T10:08:45.673Z,17.70
2022-08-17T10:11:50.444Z,18.36
2022-08-17T10:14:43.789Z,17.47
2022-08-17T10:17:38.019Z,16.83
2022-08-17T10:20:27.085Z,17.85
2022-08-17T10:23:36.090Z,17.23
2022-08-17T10:26:25.036Z,17.09
2022-08-17T10:29:17.515Z,18.20
2022-08-17T10:32:08.801Z,17.83
2022-08-17T10:35:18.034Z,18.05
2022-08-17T10:38:30.230Z,17.89
2022-08-17T10:41:28.577Z,17.72
2022-08-17T10:44:37.031Z,17.89
2022-08-17T10:47:20.143Z,18.62
2022-08-17T10:50:38.120Z,18.12
2022-08-17T10:53:54.916Z,18.60
2022-08-17T10:56:50.545Z,17.54
2022-08-17T10:59:53.237Z,18.30
2022-08-17T11:02:45.808Z,17.70
2022-08-17T11:05:44.210Z,18.80
2022-08-17T11:08:59.981Z,19.65
2022-08-17T11:12:00.425Z,20.56
2022-08-17T11:15:01.139Z,21.17
2022-08-17T11:18:06.933Z,21.87
2022-08-17T11:21:24.194Z,21.92
2022-08-17T11:24:31.447Z,24.44
2022-08-17T11:27:27.601Z,25.01
2022-08-17T11:30:14.781Z,25.71
2022-08-17T11:32:58.511Z,26.02
2022-08-17T11:35:52.517Z,26.32
2022-08-17T11:38:47.068Z,27.38
2022-08-17T11:41:41.588Z,27.86
2022-08-17T11:44:38.852Z,29.29
2022-08-17T11:48:02.563Z,27.43
2022-08-17T11:51:22.918Z,29.23
2022-08-17T11:54:32.156Z,30.03
2022-08-17T11:58:00.278Z,29.60
2022-08-17T12:00:58.402Z,30.44
2022-08-17T12:03:53.958Z,31.23
2022-08-17T12:06:50.355Z,32.17
2022-08-17T12:09:35.325Z,33.11
2022-08-17T12:12:21.622Z,33.87
2022-08-17T12:15:10.955Z,34.04
2022-08-17T12:17:57.932Z,33.58
2022-08-17T12:20:46.269Z,34.28
2022-08-17T12:23:40.703Z,34.79
2022-08-17T12:26:31.227Z,35.86
2022-08-17T12:29:35.624Z,35.74
2022-08-17T12:32:23.829Z,34.93
2022-08-17T12:35:21.479Z,33.56
2022-08-17T12:38:31.989Z,33.38
2022-08-17T12:41:29.519Z,33.45
2022-08-17T12:44:16.228Z,34.06
2022-08-17T12:47:21.103Z,34.25
2022-08-17T12:50:29.158Z,34.40
2022-08-17T12:53:14.005Z,33.84
2022-08-17T12:55:58.899Z,33.63
2022-08-17T12:58:53.539Z,35.14
2022-08-17T13:01:41.512Z,34.45
2022-08-17T13:04:24.684Z,33.10
2022-08-17T13:07:27.029Z,33.64
2022-08-17T13:10:19.559Z,33.87
2022-08-17T13:13:04.970Z,32.62
2022-08-17T13:15:54.707Z,32.79
2022-08-17T13:18:42.071Z,31.72
2022-08-17T13:21:30.593Z,31.67
2022-08-17T13:24:20.364Z,32.90
2022-08-17T13:27:08.693Z,34.05
2022-08-17T13:29:56.474Z,34.09
2022-08-17T13:32:43.750Z,33.60
2022-08-17T13:35:39.290Z,34.28
2022-08-17T13:38:41.212Z,34.67
2022-08-17T13:41:43.727Z,34.75
2022-08-17T13:44:36.606Z,35.29
2022-08-17T13:47:22.129Z,35.02
2022-08-17T13:50:05.731Z,34.66
2022-08-17T13:52:51.973Z,35.00
2022-08-17T13:55:35.473Z,34.72
2022-08-17T13:58:25.470Z,35.72
2022-08-17T14:01:30.749Z,35.60
2022-08-17T14:04:16.229Z,35.89
2022-08-17T14:07:01.890Z,36.11
2022-08-17T14:09:49.798Z,36.42
2022-08-17T14:12:35.764Z,36.28
2022-08-17T14:15:23.005Z,35.98
2022-08-17T14:18:56.187Z,36.37
2022-08-17T14:21:35.966Z,36.63
2022-08-17T14:24:23.704Z,36.00
2022-08-17T14:27:09.116Z,36.44
2022-08-17T14:29:53.356Z,36.26
2022-08-17T14:32:41.435Z,36.79
2022-08-17T14:35:27.984Z,36.05
2022-08-17T14:38:11.361Z,35.67
2022-08-17T14:40:54.544Z,35.88
2022-08-17T14:43:38.019Z,36.65
2022-08-17T14:46:21.547Z,36.04
2022-08-17T14:49:06.119Z,36.32
2022-08-17T14:51:49.587Z,36.48
2022-08-17T14:54:34.532Z,36.73
2022-08-17T14:57:23.253Z,35.73
2022-08-17T15:00:17.604Z,34.91
2022-08-17T15:03:02.988Z,35.68
2022-08-17T15:05:48.625Z,35.79
2022-08-17T15:08:32.195Z,36.48
2022-08-17T15:11:15.317Z,36.81
2022-08-17T15:13:58.430Z,36.95
2022-08-17T15:16:41.574Z,35.72
2022-08-17T15:19:24.835Z,35.91
2022-08-17T15:22:19.867Z,35.09
2022-08-17T15:25:06.442Z,35.72
2022-08-17T15:27:49.853Z,35.70
2022-08-17T15:30:33.190Z,36.44
2022-08-17T15:33:17.851Z,35.44
2022-08-17T15:36:02.963Z,36.41
2022-08-17T15:38:47.777Z,36.51
2022-08-17T15:41:31.311Z,37.32
2022-08-17T15:44:14.542Z,36.83
2022-08-17T15:46:57.644Z,37.79
2022-08-17T15:49:41.735Z,37.95
2022-08-17T15:52:26.807Z,38.74
2022-08-17T15:55:15.275Z,38.82
2022-08-17T15:57:58.922Z,38.43
2022-08-17T16:00:53.001Z,38.02
2022-08-17T16:04:04.112Z,37.86
2022-08-17T16:06:48.966Z,37.89
2022-08-17T16:09:32.067Z,38.34
2022-08-17T16:12:18.723Z,38.26
2022-08-17T16:15:03.111Z,38.17
2022-08-17T16:17:46.227Z,38.26
2022-08-17T16:20:30.732Z,37.82
2022-08-17T16:23:18.513Z,39.21
2022-08-17T16:26:03.235Z,39.17
2022-08-17T16:28:48.140Z,38.85
2022-08-17T16:31:31.306Z,39.31
2022-08-17T16:34:17.924Z,39.60
2022-08-17T16:37:01.603Z,39.42
2022-08-17T16:39:45.080Z,39.51
2022-08-17T16:42:30.756Z,39.51
2022-08-17T16:45:18.600Z,39.52
2022-08-17T16:48:01.751Z,40.03
2022-08-17T16:51:03.873Z,40.13
2022-08-17T16:53:47.423Z,40.26
2022-08-17T16:56:42.660Z,40.56
2022-08-17T16:59:38.750Z,41.15
2022-08-17T17:02:29.815Z,38.81
2022-08-17T17:05:22.248Z,37.68
2022-08-17T17:08:09.664Z,37.87
2022-08-17T17:10:55.892Z,37.90
2022-08-17T17:13:42.414Z,37.86
2022-08-17T17:16:36.131Z,37.96
2022-08-17T17:19:34.638Z,37.86
2022-08-17T17:22:25.702Z,37.47
2022-08-17T17:25:15.080Z,37.60
2022-08-17T17:28:05.321Z,37.34
2022-08-17T17:30:56.778Z,38.54
2022-08-17T17:33:44.454Z,38.30
2022-08-17T17:36:39.350Z,38.21
2022-08-17T17:39:43.592Z,38.35
2022-08-17T17:42:31.485Z,38.84
2022-08-17T17:45:21.562Z,39.40
2022-08-17T17:48:05.164Z,39.95
2022-08-17T17:50:55.600Z,40.61
2022-08-17T17:53:54.456Z,40.93
2022-08-17T17:56:45.315Z,41.04
2022-08-17T17:59:43.749Z,42.11
2022-08-17T18:02:51.882Z,41.97
2022-08-17T18:05:56.227Z,41.58
2022-08-17T18:08:54.781Z,43.28
2022-08-17T18:12:19.814Z,43.50
2022-08-17T18:15:23.985Z,44.16
2022-08-17T18:18:38.761Z,43.52
2022-08-17T18:21:27.611Z,44.02
2022-08-17T18:24:12.917Z,43.83
2022-08-17T18:26:58.842Z,43.83
2022-08-17T18:29:45.672Z,44.21
2022-08-17T18:32:38.507Z,44.42
2022-08-17T18:35:30.231Z,45.91
2022-08-17T18:38:23.630Z,45.74
2022-08-17T18:41:20.526Z,44.96
2022-08-17T18:44:07.248Z,46.39
2022-08-17T18:47:08.236Z,46.46
2022-08-17T18:49:57.456Z,46.97
2022-08-17T18:52:41.095Z,47.26
2022-08-17T18:55:27.853Z,48.48
2022-08-17T18:58:20.535Z,47.99
2022-08-17T19:01:03.699Z,47.31
2022-08-17T19:03:47.321Z,48.60
2022-08-17T19:06:35.184Z,49.58
2022-08-17T19:09:33.834Z,48.22
2022-08-17T19:12:27.806Z,49.59
2022-08-17T19:15:16.043Z,50.42
2022-08-17T19:18:03.731Z,50.15
2022-08-17T19:21:04.882Z,50.72
2022-08-17T19:23:54.566Z,50.28
2022-08-17T19:26:54.451Z,49.14
2022-08-17T19:29:45.607Z,50.53
2022-08-17T19:32:34.140Z,49.65
2022-08-17T19:35:20.335Z,50.41
2022-08-17T19:38:12.938Z,49.87
2022-08-17T19:41:09.249Z,50.36
2022-08-17T19:44:09.940Z,50.39
2022-08-17T19:47:06.018Z,50.66
2022-08-17T19:50:01.219Z,50.86
2022-08-17T19:52:55.352Z,51.46
2022-08-17T19:55:49.320Z,51.20
2022-08-17T19:58:51.468Z,51.05
2022-08-17T20:01:42.182Z,51.65
2022-08-17T20:04:36.969Z,51.67
2022-08-17T20:07:27.518Z,52.74
2022-08-17T20:10:18.074Z,51.99
2022-08-17T20:13:07.579Z,52.08
2022-08-17T20:15:50.682Z,52.49
2022-08-17T20:18:37.812Z,52.57
2022-08-17T20:21:27.514Z,52.83
2022-08-17T20:24:21.441Z,53.45
2022-08-17T20:27:16.343Z,53.54
2022-08-17T20:30:09.313Z,53.62
2022-08-17T20:32:55.778Z,53.89
2022-08-17T20:35:39.818Z,54.25
2022-08-17T20:38:41.757Z,54.23
2022-08-17T20:41:27.579Z,54.56
2022-08-17T20:44:10.763Z,54.36
2022-08-17T20:47:04.749Z,54.46
2022-08-17T20:49:56.051Z,54.62
2022-08-17T20:52:50.860Z,54.50
2022-08-17T20:55:55.632Z,55.02
2022-08-17T20:58:47.760Z,54.89
2022-08-17T21:01:40.098Z,55.17
2022-08-17T21:04:45.340Z,55.10
2022-08-17T21:07:42.599Z,55.54
2022-08-17T21:10:35.701Z,56.05
2022-08-17T21:13:53.444Z,56.00
2022-08-17T21:17:01.373Z,55.97
2022-08-17T21:20:11.036Z,56.44
2022-08-17T21:23:07.375Z,56.24
2022-08-17T21:26:30.223Z,56.65
2022-08-17T21:29:31.256Z,57.00
2022-08-17T21:32:24.312Z,56.91
2022-08-17T21:35:31.096Z,57.32
2022-08-17T21:38:15.598Z,57.55
2022-08-17T21:40:58.706Z,57.97
2022-08-17T21:43:49.610Z,58.36
2022-08-17T21:46:38.540Z,58.37
2022-08-17T21:49:27.430Z,58.15
2022-08-17T21:52:15.535Z,58.57
2022-08-17T21:55:02.579Z,58.74
2022-08-17T21:57:53.133Z,58.57
2022-08-17T22:01:14.000Z,59.43
2022-08-17T22:04:03.346Z,59.63
2022-08-17T22:06:52.338Z,59.81
2022-08-17T22:09:44.341Z,59.17
2022-08-17T22:12:27.478Z,59.76
2022-08-17T22:15:20.569Z,60.22
2022-08-17T22:18:05.260Z,60.72
2022-08-17T22:20:52.560Z,60.69
2022-08-17T22:23:55.334Z,60.81
2022-08-17T22:27:07.441Z,60.85
2022-08-17T22:29:57.542Z,60.78
2022-08-17T22:32:43.795Z,60.83
2022-08-17T22:35:41.188Z,61.97
2022-08-17T22:38:31.423Z,62.81
2022-08-17T22:41:23.163Z,62.66
2022-08-17T22:44:17.303Z,61.64
2022-08-17T22:47:06.750Z,61.53
2022-08-17T22:49:57.890Z,61.77
2022-08-17T22:52:58.268Z,61.51
2022-08-17T22:56:07.552Z,62.34
2022-08-17T22:59:11.172Z,62.46
2022-08-17T23:02:21.529Z,62.64
2022-08-17T23:05:28.518Z,63.19
2022-08-17T23:08:12.882Z,62.65
2022-08-17T23:11:00.343Z,62.84
2022-08-17T23:13:44.485Z,63.37
2022-08-17T23:16:29.588Z,63.34
2022-08-17T23:19:15.674Z,63.86
2022-08-17T23:21:59.729Z,63.82
2022-08-17T23:24:49.032Z,63.64
2022-08-17T23:27:33.537Z,63.80
2022-08-17T23:30:16.774Z,63.53
2022-08-17T23:33:02.014Z,63.86
2022-08-17T23:35:45.363Z,64.33
2022-08-17T23:38:29.205Z,63.48
2022-08-17T23:41:15.903Z,65.02
2022-08-17T23:44:01.438Z,64.23
2022-08-17T23:46:45.110Z,64.68
2022-08-17T23:49:28.784Z,64.55
2022-08-17T23:52:16.405Z,64.29
2022-08-17T23:55:00.237Z,65.05
2022-08-17T23:57:43.763Z,65.31
